createdAt,value
2019-01-16T00:00:32.768Z,73.82
2019-01-16T00:03:02.804Z,73.92
2019-01-16T00:05:35.822Z,74.09
2019-01-16T00:08:14.904Z,74.31
2019-01-16T00:10:54.076Z,74.47
2019-01-16T00:13:40.263Z,74.62
2019-01-16T00:16:13.575Z,75.14
2019-01-16T00:18:50.044Z,75.08
2019-01-16T00:21:26.504Z,75.11
2019-01-16T00:24:12.591Z,75.12
2019-01-16T00:26:51.611Z,75.09
2019-01-16T00:29:27.900Z,75.36
2019-01-16T00:32:10.199Z,75.52
2019-01-16T00:34:52.286Z,75.77
2019-01-16T00:37:24.998Z,75.94
2019-01-16T00:40:01.037Z,76.38
2019-01-16T00:42:34.257Z,76.80
2019-01-16T00:45:10.096Z,77.07
2019-01-16T00:47:43.377Z,77.49
2019-01-16T00:50:29.993Z,78.10
2019-01-16T00:53:00.038Z,78.64
2019-01-16T00:55:44.748Z,79.47
2019-01-16T00:58:14.876Z,80.21
2019-01-16T01:00:47.697Z,80.55
2019-01-16T01:03:29.874Z,80.72
2019-01-16T01:05:59.890Z,80.94
2019-01-16T01:08:33.266Z,81.17
2019-01-16T01:11:09.444Z,81.09
2019-01-16T01:13:42.839Z,81.36
2019-01-16T01:16:19.629Z,81.58
2019-01-16T01:18:55.884Z,81.63
2019-01-16T01:21:41.157Z,81.56
2019-01-16T01:24:14.249Z,81.73
2019-01-16T01:26:50.307Z,81.78
2019-01-16T01:29:29.646Z,81.72
2019-01-16T01:31:59.963Z,81.78
2019-01-16T01:34:33.361Z,81.79
2019-01-16T01:37:09.840Z,81.89
2019-01-16T01:39:40.263Z,81.84
2019-01-16T01:42:10.306Z,81.96
2019-01-16T01:44:40.325Z,81.94
2019-01-16T01:47:26.389Z,81.87
2019-01-16T01:50:01.953Z,81.89
2019-01-16T01:52:48.045Z,81.68
2019-01-16T01:55:18.084Z,81.61
2019-01-16T01:57:54.004Z,81.63
2019-01-16T02:00:42.583Z,81.78
2019-01-16T02:03:12.632Z,81.57
2019-01-16T02:05:59.184Z,81.92
2019-01-16T02:08:41.594Z,82.01
2019-01-16T02:11:17.852Z,82.50
2019-01-16T02:13:59.826Z,82.52
2019-01-16T02:16:45.028Z,82.47
2019-01-16T02:19:21.489Z,82.58
2019-01-16T02:22:00.225Z,82.48
2019-01-16T02:24:32.927Z,82.46
2019-01-16T02:27:11.895Z,82.43
2019-01-16T02:29:56.904Z,82.19
2019-01-16T02:32:26.952Z,82.19
2019-01-16T02:35:13.213Z,82.17
2019-01-16T02:37:59.341Z,82.01
2019-01-16T02:40:29.419Z,81.73
2019-01-16T02:42:59.441Z,81.78
2019-01-16T02:45:45.694Z,81.85
2019-01-16T02:48:31.827Z,81.85
2019-01-16T02:51:02.169Z,81.85
2019-01-16T02:53:47.600Z,81.87
2019-01-16T02:56:26.767Z,81.80
2019-01-16T02:59:08.886Z,81.85
2019-01-16T03:01:41.318Z,81.78
2019-01-16T03:04:20.479Z,81.39
2019-01-16T03:06:56.608Z,81.34
2019-01-16T03:09:26.653Z,81.26
2019-01-16T03:12:03.120Z,81.17
2019-01-16T03:14:41.909Z,81.02
2019-01-16T03:17:11.938Z,80.58
2019-01-16T03:19:44.818Z,80.58
2019-01-16T03:22:30.152Z,80.66
2019-01-16T03:25:06.430Z,80.25
2019-01-16T03:27:36.456Z,80.25
2019-01-16T03:30:09.805Z,80.25
2019-01-16T03:32:56.283Z,79.99
2019-01-16T03:35:26.320Z,79.94
2019-01-16T03:37:56.644Z,79.73
2019-01-16T03:40:26.973Z,79.70
2019-01-16T03:42:57.292Z,79.42
2019-01-16T03:45:30.384Z,78.82
2019-01-16T03:48:12.689Z,78.62
2019-01-16T03:50:58.999Z,78.16
2019-01-16T03:53:35.047Z,78.24
2019-01-16T03:56:10.804Z,77.82
2019-01-16T03:58:57.314Z,77.82
2019-01-16T04:01:30.277Z,77.64
2019-01-16T04:04:12.189Z,77.33
2019-01-16T04:06:42.238Z,77.32
2019-01-16T04:09:15.390Z,76.19
2019-01-16T04:11:55.142Z,76.19
2019-01-16T04:14:25.168Z,76.26
2019-01-16T04:16:58.142Z,75.59
2019-01-16T04:19:37.582Z,75.59
2019-01-16T04:22:10.364Z,75.00
2019-01-16T04:24:40.411Z,75.05
2019-01-16T04:27:19.307Z,74.92
2019-01-16T04:29:49.626Z,74.74
2019-01-16T04:32:22.069Z,75.00
2019-01-16T04:35:08.716Z,73.92
2019-01-16T04:37:38.743Z,73.92
2019-01-16T04:40:26.262Z,73.75
2019-01-16T04:43:02.028Z,73.35
2019-01-16T04:45:41.555Z,73.35
2019-01-16T04:48:23.657Z,73.68
2019-01-16T04:50:56.426Z,73.37
2019-01-16T04:53:29.833Z,73.62
2019-01-16T04:56:02.402Z,73.87
2019-01-16T04:58:35.205Z,74.22
2019-01-16T05:01:21.435Z,74.22
2019-01-16T05:03:51.485Z,74.35
2019-01-16T05:06:21.515Z,74.48
2019-01-16T05:08:51.847Z,74.74
2019-01-16T05:11:27.492Z,74.90
2019-01-16T05:14:03.561Z,75.08
2019-01-16T05:16:45.531Z,75.34
2019-01-16T05:19:15.574Z,75.45
2019-01-16T05:21:48.002Z,75.37
2019-01-16T05:24:21.247Z,75.51
2019-01-16T05:26:54.539Z,75.65
2019-01-16T05:29:36.742Z,75.74
2019-01-16T05:32:19.047Z,75.48
2019-01-16T05:35:05.212Z,75.60
2019-01-16T05:37:35.258Z,75.59
2019-01-16T05:40:09.384Z,75.67
2019-01-16T05:42:48.398Z,75.35
2019-01-16T05:45:24.247Z,75.35
2019-01-16T05:48:00.084Z,75.51
2019-01-16T05:50:42.265Z,75.61
2019-01-16T05:53:12.294Z,75.47
2019-01-16T05:55:51.540Z,75.31
2019-01-16T05:58:26.988Z,75.31
2019-01-16T06:01:13.507Z,75.22
2019-01-16T06:03:43.536Z,75.40
2019-01-16T06:06:16.454Z,75.36
2019-01-16T06:08:46.561Z,75.19
2019-01-16T06:11:19.277Z,75.21
2019-01-16T06:14:05.450Z,74.95
2019-01-16T06:16:35.476Z,74.35
2019-01-16T06:19:14.920Z,74.35
2019-01-16T06:21:54.098Z,73.83
2019-01-16T06:24:26.651Z,73.83
2019-01-16T06:26:59.865Z,72.78
2019-01-16T06:29:32.845Z,72.16
2019-01-16T06:32:17.635Z,71.22
2019-01-16T06:34:53.680Z,71.32
2019-01-16T06:37:33.117Z,71.32
2019-01-16T06:40:06.202Z,71.25
2019-01-16T06:42:36.249Z,70.56
2019-01-16T06:45:14.227Z,70.13
2019-01-16T06:47:50.418Z,70.13
2019-01-16T06:50:20.448Z,69.75
2019-01-16T06:53:02.711Z,69.14
2019-01-16T06:55:38.404Z,69.42
2019-01-16T06:58:10.854Z,69.40
2019-01-16T07:00:40.888Z,69.58
2019-01-16T07:03:11.185Z,69.28
2019-01-16T07:05:43.608Z,68.66
2019-01-16T07:08:19.196Z,69.00
2019-01-16T07:11:05.813Z,68.02
2019-01-16T07:13:38.592Z,68.43
2019-01-16T07:16:17.662Z,68.71
2019-01-16T07:19:03.845Z,68.75
2019-01-16T07:21:36.909Z,68.06
2019-01-16T07:24:19.007Z,68.47
2019-01-16T07:26:49.327Z,68.01
2019-01-16T07:29:25.045Z,68.02
2019-01-16T07:32:11.477Z,68.30
2019-01-16T07:34:44.260Z,67.84
2019-01-16T07:37:20.509Z,67.35
2019-01-16T07:40:07.341Z,66.77
2019-01-16T07:42:49.388Z,66.46
2019-01-16T07:45:37.857Z,66.45
2019-01-16T07:48:14.459Z,66.37
2019-01-16T07:50:47.448Z,66.37
2019-01-16T07:53:29.134Z,66.39
2019-01-16T07:56:02.015Z,66.46
2019-01-16T07:58:32.068Z,66.83
2019-01-16T08:01:02.116Z,66.74
2019-01-16T08:03:32.159Z,66.03
2019-01-16T08:06:02.189Z,66.44
2019-01-16T08:08:41.204Z,66.44
2019-01-16T08:11:20.358Z,66.68
2019-01-16T08:14:06.295Z,66.64
2019-01-16T08:16:39.092Z,66.04
2019-01-16T08:19:15.595Z,66.67
2019-01-16T08:22:01.881Z,66.46
2019-01-16T08:24:31.912Z,66.07
2019-01-16T08:27:07.972Z,66.36
2019-01-16T08:29:38.252Z,65.96
2019-01-16T08:32:23.582Z,66.12
2019-01-16T08:34:56.872Z,66.56
2019-01-16T08:37:45.314Z,66.28
2019-01-16T08:40:33.614Z,65.73
2019-01-16T08:43:06.657Z,66.46
2019-01-16T08:45:39.192Z,66.05
2019-01-16T08:48:25.326Z,65.59
2019-01-16T08:51:01.894Z,65.44
2019-01-16T08:53:40.845Z,65.71
2019-01-16T08:56:19.730Z,65.54
2019-01-16T08:59:05.882Z,65.51
2019-01-16T09:01:39.233Z,65.59
2019-01-16T09:04:21.842Z,65.50
2019-01-16T09:06:57.649Z,65.24
2019-01-16T09:09:27.685Z,64.79
2019-01-16T09:12:14.079Z,64.96
2019-01-16T09:14:46.857Z,65.35
2019-01-16T09:17:16.877Z,65.00
2019-01-16T09:19:47.248Z,64.93
2019-01-16T09:22:32.937Z,64.89
2019-01-16T09:25:05.481Z,64.43
2019-01-16T09:27:47.558Z,64.34
2019-01-16T09:30:20.522Z,64.11
2019-01-16T09:32:56.680Z,64.00
2019-01-16T09:35:36.052Z,63.88
2019-01-16T09:38:06.160Z,63.93
2019-01-16T09:40:51.487Z,63.93
2019-01-16T09:43:24.401Z,63.62
2019-01-16T09:45:54.461Z,63.99
2019-01-16T09:48:24.818Z,64.18
2019-01-16T09:50:54.867Z,63.95
2019-01-16T09:53:37.340Z,63.76
2019-01-16T09:56:07.696Z,63.77
2019-01-16T09:58:53.980Z,63.88
2019-01-16T10:01:24.103Z,63.89
2019-01-16T10:03:54.126Z,63.84
2019-01-16T10:06:24.433Z,63.43
2019-01-16T10:08:54.759Z,63.61
2019-01-16T10:11:40.134Z,63.89
2019-01-16T10:14:15.884Z,63.50
2019-01-16T10:16:54.610Z,63.21
2019-01-16T10:19:40.626Z,63.66
2019-01-16T10:22:22.626Z,63.82
2019-01-16T10:24:55.588Z,63.94
2019-01-16T10:27:40.503Z,63.87
2019-01-16T10:30:19.479Z,64.02
2019-01-16T10:32:49.498Z,64.46
2019-01-16T10:35:19.923Z,64.52
2019-01-16T10:38:05.035Z,64.67
2019-01-16T10:40:35.453Z,64.18
2019-01-16T10:43:22.030Z,64.48
2019-01-16T10:46:08.152Z,63.98
2019-01-16T10:48:49.703Z,64.09
2019-01-16T10:51:32.623Z,64.03
2019-01-16T10:54:18.212Z,64.36
2019-01-16T10:56:54.272Z,63.95
2019-01-16T10:59:27.156Z,64.36
2019-01-16T11:01:57.179Z,63.79
2019-01-16T11:04:29.880Z,64.31
2019-01-16T11:07:15.126Z,64.88
2019-01-16T11:09:48.324Z,64.43
2019-01-16T11:12:21.712Z,64.19
2019-01-16T11:15:07.429Z,63.64
2019-01-16T11:17:54.215Z,64.05
2019-01-16T11:20:24.257Z,64.26
2019-01-16T11:23:10.031Z,63.59
2019-01-16T11:25:42.523Z,63.61
2019-01-16T11:28:31.006Z,63.99
2019-01-16T11:31:16.423Z,64.15
2019-01-16T11:33:48.743Z,64.39
2019-01-16T11:36:24.375Z,64.51
2019-01-16T11:38:54.539Z,63.85
2019-01-16T11:41:24.893Z,63.92
2019-01-16T11:44:11.394Z,64.26
2019-01-16T11:46:44.784Z,64.63
2019-01-16T11:49:23.712Z,65.27
2019-01-16T11:52:02.747Z,64.52
2019-01-16T11:54:33.070Z,64.13
2019-01-16T11:57:03.095Z,64.76
2019-01-16T11:59:42.246Z,64.74
2019-01-16T12:02:12.546Z,64.00
2019-01-16T12:04:48.858Z,64.23
2019-01-16T12:07:33.560Z,64.41
2019-01-16T12:10:18.733Z,63.97
2019-01-16T12:13:05.460Z,64.29
2019-01-16T12:15:35.767Z,63.85
2019-01-16T12:18:15.194Z,64.45
2019-01-16T12:20:45.535Z,63.57
2019-01-16T12:23:30.706Z,64.09
2019-01-16T12:26:17.007Z,64.46
2019-01-16T12:28:53.017Z,64.48
2019-01-16T12:31:25.746Z,64.79
2019-01-16T12:33:56.083Z,64.75
2019-01-16T12:36:38.063Z,64.57
2019-01-16T12:39:22.110Z,63.68
2019-01-16T12:41:59.544Z,64.43
2019-01-16T12:44:32.591Z,64.43
2019-01-16T12:47:05.486Z,64.76
2019-01-16T12:49:36.213Z,64.45
2019-01-16T12:52:22.870Z,64.29
2019-01-16T12:55:02.183Z,64.67
2019-01-16T12:57:41.181Z,64.76
2019-01-16T13:00:14.428Z,64.76
2019-01-16T13:02:47.235Z,63.76
2019-01-16T13:05:17.745Z,63.83
2019-01-16T13:07:47.773Z,63.65
2019-01-16T13:10:18.255Z,63.43
2019-01-16T13:12:50.984Z,63.43
2019-01-16T13:15:21.439Z,64.27
2019-01-16T13:17:54.632Z,64.27
2019-01-16T13:20:24.657Z,63.59
2019-01-16T13:22:57.129Z,64.00
2019-01-16T13:25:27.163Z,63.51
2019-01-16T13:27:57.470Z,64.19
2019-01-16T13:30:33.230Z,64.19
2019-01-16T13:33:06.384Z,63.82
2019-01-16T13:35:51.370Z,64.10
2019-01-16T13:38:30.192Z,64.33
2019-01-16T13:41:06.365Z,63.65
2019-01-16T13:43:39.405Z,64.19
2019-01-16T13:46:21.459Z,64.07
2019-01-16T13:48:54.380Z,64.34
2019-01-16T13:51:27.435Z,64.13
2019-01-16T13:54:13.667Z,64.02
2019-01-16T13:56:44.053Z,64.08
2019-01-16T13:59:26.421Z,63.97
2019-01-16T14:02:05.473Z,63.97
2019-01-16T14:04:38.452Z,64.66
2019-01-16T14:07:08.501Z,64.14
2019-01-16T14:09:41.214Z,63.97
2019-01-16T14:12:17.327Z,63.97
2019-01-16T14:14:50.084Z,64.33
2019-01-16T14:17:22.897Z,64.33
2019-01-16T14:19:58.365Z,64.60
2019-01-16T14:22:28.666Z,63.69
2019-01-16T14:25:16.940Z,64.03
2019-01-16T14:27:59.734Z,63.68
2019-01-16T14:30:33.222Z,63.74
2019-01-16T14:33:03.266Z,64.21
2019-01-16T14:35:33.306Z,63.80
2019-01-16T14:38:18.386Z,63.36
2019-01-16T14:41:00.339Z,63.36
2019-01-16T14:43:30.864Z,63.67
2019-01-16T14:46:01.183Z,63.85
2019-01-16T14:48:31.294Z,63.78
2019-01-16T14:51:01.337Z,63.98
2019-01-16T14:53:37.480Z,64.57
2019-01-16T14:56:24.206Z,64.57
2019-01-16T14:58:57.688Z,64.40
2019-01-16T15:01:28.028Z,63.62
2019-01-16T15:04:04.165Z,64.19
2019-01-16T15:06:34.419Z,64.19
2019-01-16T15:09:13.427Z,63.85
2019-01-16T15:11:43.864Z,64.21
2019-01-16T15:14:16.929Z,64.03
2019-01-16T15:17:03.073Z,64.51
2019-01-16T15:19:33.130Z,64.84
2019-01-16T15:22:06.358Z,64.98
2019-01-16T15:24:34.916Z,65.34
2019-01-16T15:27:13.726Z,65.39
2019-01-16T15:29:47.046Z,64.68
2019-01-16T15:32:33.167Z,65.13
2019-01-16T15:35:05.927Z,65.21
2019-01-16T15:37:38.631Z,65.22
2019-01-16T15:40:27.390Z,65.08
2019-01-16T15:42:57.420Z,65.14
2019-01-16T15:45:36.876Z,65.53
2019-01-16T15:48:19.410Z,64.90
2019-01-16T15:51:08.988Z,65.13
2019-01-16T15:53:48.180Z,65.46
2019-01-16T15:56:34.320Z,65.53
2019-01-16T15:59:04.355Z,65.86
2019-01-16T16:01:37.099Z,65.95
2019-01-16T16:04:15.914Z,66.16
2019-01-16T16:06:48.569Z,66.03
2019-01-16T16:09:18.593Z,66.41
2019-01-16T16:11:48.719Z,66.35
2019-01-16T16:14:19.120Z,66.42
2019-01-16T16:16:51.945Z,66.51
2019-01-16T16:19:29.689Z,66.53
2019-01-16T16:22:09.620Z,66.71
2019-01-16T16:24:40.064Z,66.65
2019-01-16T16:27:26.367Z,66.48
2019-01-16T16:29:59.327Z,66.88
2019-01-16T16:32:29.394Z,66.73
2019-01-16T16:35:14.734Z,66.99
2019-01-16T16:38:03.018Z,66.80
2019-01-16T16:40:33.055Z,66.76
2019-01-16T16:43:06.034Z,67.15
2019-01-16T16:45:36.058Z,67.15
2019-01-16T16:48:15.556Z,67.53
2019-01-16T16:50:51.506Z,67.39
2019-01-16T16:53:30.400Z,67.63
2019-01-16T16:56:00.429Z,67.23
2019-01-16T16:58:46.332Z,67.28
2019-01-16T17:01:31.434Z,67.32
2019-01-16T17:04:17.561Z,67.19
2019-01-16T17:06:50.325Z,67.06
2019-01-16T17:09:20.358Z,67.01
2019-01-16T17:11:59.527Z,67.30
2019-01-16T17:14:32.245Z,67.24
2019-01-16T17:17:11.399Z,66.88
2019-01-16T17:19:53.417Z,67.02
2019-01-16T17:22:40.261Z,66.91
2019-01-16T17:25:23.339Z,67.15
2019-01-16T17:28:09.694Z,67.46
2019-01-16T17:30:39.894Z,67.71
2019-01-16T17:33:19.135Z,67.47
2019-01-16T17:35:54.655Z,67.12
2019-01-16T17:38:41.189Z,67.31
2019-01-16T17:41:16.957Z,67.29
2019-01-16T17:44:03.176Z,67.33
2019-01-16T17:46:39.122Z,67.31
2019-01-16T17:49:12.189Z,67.09
2019-01-16T17:51:42.237Z,67.14
2019-01-16T17:54:14.975Z,67.25
2019-01-16T17:56:48.140Z,67.39
2019-01-16T17:59:23.966Z,67.52
2019-01-16T18:01:54.071Z,67.69
2019-01-16T18:04:26.873Z,67.78
2019-01-16T18:07:08.998Z,68.34
2019-01-16T18:09:42.061Z,68.56
2019-01-16T18:12:18.086Z,68.74
2019-01-16T18:14:54.143Z,68.71
2019-01-16T18:17:26.577Z,68.82
2019-01-16T18:20:03.103Z,69.05
2019-01-16T18:22:45.421Z,69.17
2019-01-16T18:25:15.733Z,69.28
2019-01-16T18:27:45.806Z,69.47
2019-01-16T18:30:29.983Z,69.37
2019-01-16T18:33:02.663Z,69.49
2019-01-16T18:35:38.969Z,69.54
2019-01-16T18:38:27.175Z,69.56
2019-01-16T18:40:57.219Z,69.82
2019-01-16T18:43:27.252Z,69.74
2019-01-16T18:45:57.666Z,69.81
2019-01-16T18:48:36.590Z,69.92
2019-01-16T18:51:16.311Z,69.94
2019-01-16T18:53:55.300Z,69.65
2019-01-16T18:56:30.952Z,69.96
2019-01-16T18:59:10.152Z,70.06
2019-01-16T19:01:57.994Z,70.13
2019-01-16T19:04:28.006Z,70.21
2019-01-16T19:07:01.019Z,70.03
2019-01-16T19:09:31.047Z,69.99
2019-01-16T19:12:04.233Z,69.77
2019-01-16T19:14:34.592Z,69.93
2019-01-16T19:17:16.924Z,69.80
2019-01-16T19:20:02.017Z,69.54
2019-01-16T19:22:35.070Z,69.56
2019-01-16T19:25:18.796Z,69.01
2019-01-16T19:27:56.970Z,68.97
2019-01-16T19:30:44.025Z,68.73
2019-01-16T19:33:23.446Z,68.61
2019-01-16T19:35:56.400Z,68.12
2019-01-16T19:38:41.447Z,68.02
2019-01-16T19:41:24.024Z,68.05
2019-01-16T19:43:54.239Z,67.49
2019-01-16T19:46:27.530Z,67.27
2019-01-16T19:49:06.324Z,66.63
2019-01-16T19:51:42.567Z,66.34
2019-01-16T19:54:29.544Z,65.95
2019-01-16T19:57:02.235Z,65.80
2019-01-16T19:59:38.136Z,65.43
2019-01-16T20:02:14.305Z,64.94
2019-01-16T20:04:50.084Z,65.27
2019-01-16T20:07:28.744Z,64.69
2019-01-16T20:09:58.801Z,64.80
2019-01-16T20:12:31.367Z,64.68
2019-01-16T20:15:16.369Z,64.91
2019-01-16T20:18:04.355Z,65.03
2019-01-16T20:20:46.532Z,64.57
2019-01-16T20:23:16.571Z,64.97
2019-01-16T20:25:49.381Z,65.15
2019-01-16T20:28:19.439Z,65.26
2019-01-16T20:30:55.540Z,64.80
2019-01-16T20:33:25.664Z,65.29
2019-01-16T20:35:55.818Z,65.46
2019-01-16T20:38:42.289Z,65.36
2019-01-16T20:41:12.383Z,65.46
2019-01-16T20:43:48.527Z,65.42
2019-01-16T20:46:26.121Z,65.03
2019-01-16T20:48:56.165Z,65.26
2019-01-16T20:51:26.199Z,65.54
2019-01-16T20:53:58.670Z,65.12
2019-01-16T20:56:28.765Z,65.46
2019-01-16T20:59:07.462Z,65.41
2019-01-16T21:01:49.540Z,65.28
2019-01-16T21:04:28.329Z,65.19
2019-01-16T21:07:05.101Z,65.11
2019-01-16T21:09:37.870Z,64.93
2019-01-16T21:12:07.988Z,64.28
2019-01-16T21:14:47.012Z,64.61
2019-01-16T21:17:19.692Z,64.56
2019-01-16T21:19:49.735Z,64.70
2019-01-16T21:22:35.846Z,65.00
2019-01-16T21:25:15.987Z,64.76
2019-01-16T21:27:58.265Z,65.13
2019-01-16T21:30:40.860Z,64.80
2019-01-16T21:33:27.671Z,64.88
2019-01-16T21:35:57.706Z,65.03
2019-01-16T21:38:37.219Z,64.61
2019-01-16T21:41:23.134Z,64.56
2019-01-16T21:43:55.876Z,64.77
2019-01-16T21:46:42.504Z,64.51
2019-01-16T21:49:15.489Z,64.41
2019-01-16T21:51:49.305Z,64.81
2019-01-16T21:54:34.024Z,64.56
2019-01-16T21:57:04.254Z,64.67
2019-01-16T21:59:34.298Z,64.54
2019-01-16T22:02:04.646Z,64.36
2019-01-16T22:04:35.056Z,64.20
2019-01-16T22:07:11.500Z,63.88
2019-01-16T22:09:44.086Z,64.09
2019-01-16T22:12:14.858Z,63.94
2019-01-16T22:14:44.874Z,64.02
2019-01-16T22:17:20.811Z,63.97
2019-01-16T22:19:51.137Z,64.20
2019-01-16T22:22:21.467Z,64.24
2019-01-16T22:24:51.890Z,64.86
2019-01-16T22:27:34.196Z,64.65
2019-01-16T22:30:07.486Z,64.44
2019-01-16T22:32:37.524Z,64.43
2019-01-16T22:35:23.632Z,64.65
2019-01-16T22:37:53.676Z,65.00
2019-01-16T22:40:26.906Z,64.94
2019-01-16T22:42:57.159Z,65.06
2019-01-16T22:45:27.280Z,64.96
2019-01-16T22:48:12.439Z,64.99
2019-01-16T22:50:45.659Z,64.65
2019-01-16T22:53:24.612Z,64.84
2019-01-16T22:55:54.652Z,65.10
2019-01-16T22:58:27.789Z,65.44
2019-01-16T23:00:58.245Z,64.92
2019-01-16T23:03:44.530Z,65.62
2019-01-16T23:06:14.549Z,66.15
2019-01-16T23:08:44.854Z,66.78
2019-01-16T23:11:29.717Z,66.70
2019-01-16T23:13:59.762Z,66.65
2019-01-16T23:16:44.885Z,66.63
2019-01-16T23:19:15.210Z,66.42
2019-01-16T23:21:45.252Z,66.54
2019-01-16T23:24:18.308Z,66.39
2019-01-16T23:26:48.764Z,66.62
2019-01-16T23:29:18.876Z,66.43
2019-01-16T23:31:51.840Z,65.94
2019-01-16T23:34:38.034Z,65.91
2019-01-16T23:37:13.841Z,65.89
2019-01-16T23:39:49.848Z,66.15
2019-01-16T23:42:28.992Z,66.20
2019-01-16T23:45:04.721Z,66.36
2019-01-16T23:47:44.068Z,66.49
2019-01-16T23:50:20.128Z,66.88
2019-01-16T23:53:02.131Z,66.92
2019-01-16T23:55:35.111Z,67.17
2019-01-16T23:58:14.351Z,67.48
